Time;durP1;ratioP1;P1;durP2;ratioP2;P2;SDS_P1;SDS_P2;PMS_P1;PMS_P2;Temp;Humidity;BMP_temperature;BMP_pressure;BME280_temperature;BME280_humidity;BME280_pressure;Samples;Min_cycle;Max_cycle;Signal;HPM_P1;HPM_P2
2023/05/06 00:02:07;;;;;;;1.10;0.40;;;;;;;7.74;100.00;100174.70;105358;1259;69333;-47
2023/05/06 00:04:34;;;;;;;2.30;0.40;;;;;;;7.71;100.00;100171.21;106195;1260;74752;-47
2023/05/06 00:07:01;;;;;;;5.70;0.60;;;;;;;7.69;100.00;100169.29;105261;1261;62488;-45
2023/05/06 00:09:28;;;;;;;0.50;0.30;;;;;;;7.69;100.00;100170.54;105313;1259;60479;-48
2023/05/06 00:11:54;;;;;;;0.50;0.20;;;;;;;7.72;100.00;100166.90;105364;1259;75040;-47
2023/05/06 00:14:21;;;;;;;0.30;0.30;;;;;;;7.74;100.00;100163.42;105597;1259;70080;-45
2023/05/06 00:16:49;;;;;;;2.30;0.20;;;;;;;7.77;100.00;100166.01;105370;1264;72791;-47
2023/05/06 00:19:16;;;;;;;2.30;0.30;;;;;;;7.78;100.00;100171.34;105396;1254;64426;-46
2023/05/06 00:21:43;;;;;;;1.60;0.30;;;;;;;7.77;100.00;100170.83;105458;1259;61638;-47
2023/05/06 00:24:10;;;;;;;1.30;0.50;;;;;;;7.76;100.00;100175.69;105223;1259;78335;-48
2023/05/06 00:26:36;;;;;;;2.40;0.30;;;;;;;7.77;100.00;100182.80;105341;1259;68072;-48
2023/05/06 00:29:03;;;;;;;1.30;0.30;;;;;;;7.80;100.00;100178.61;105368;1254;74027;-47
2023/05/06 00:31:30;;;;;;;0.40;0.30;;;;;;;7.79;100.00;100176.67;105302;1261;62147;-46
2023/05/06 00:33:57;;;;;;;2.10;0.40;;;;;;;7.74;100.00;100181.66;105412;1259;60983;-47
2023/05/06 00:36:24;;;;;;;0.80;0.30;;;;;;;7.68;100.00;100184.52;105389;1265;76193;-46
2023/05/06 00:38:51;;;;;;;0.40;0.20;;;;;;;7.64;100.00;100189.48;105357;1262;68823;-46
2023/05/06 00:41:17;;;;;;;1.90;0.30;;;;;;;7.61;100.00;100196.86;105396;1259;73011;-47
2023/05/06 00:43:44;;;;;;;1.10;0.20;;;;;;;7.57;100.00;100194.14;105428;1259;64048;-49
2023/05/06 00:46:11;;;;;;;4.30;0.30;;;;;;;7.56;100.00;100194.52;105417;1262;61119;-47
2023/05/06 00:48:38;;;;;;;0.30;0.30;;;;;;;7.57;100.00;100199.99;105305;1260;75792;-46
2023/05/06 00:51:05;;;;;;;0.80;0.30;;;;;;;7.56;100.00;100205.59;105444;1257;69907;-47
2023/05/06 00:53:32;;;;;;;1.80;0.30;;;;;;;7.56;100.00;100216.11;105271;1260;71603;-46
2023/05/06 00:55:59;;;;;;;0.40;0.30;;;;;;;7.57;100.00;100215.71;105373;1258;60911;-46
2023/05/06 00:58:26;;;;;;;0.50;0.30;;;;;;;7.59;100.00;100217.45;105538;1255;61137;-47
2023/05/06 01:00:52;;;;;;;0.50;0.30;;;;;;;7.58;100.00;100209.45;105305;1260;75187;-46
2023/05/06 01:06:41;;;;;;;0.50;0.30;;;;;;;7.46;100.00;100217.83;102096;1293;601510;-48
2023/05/06 01:09:21;;;;;;;0.80;0.30;;;;;;;7.36;100.00;100218.46;104445;1269;61919;-49
2023/05/06 01:11:54;;;;;;;0.60;0.20;;;;;;;7.26;100.00;100218.03;104369;1272;61107;-47
2023/05/06 01:14:39;;;;;;;1.20;0.20;;;;;;;7.23;100.00;100219.17;104837;1269;73422;-48
2023/05/06 01:17:08;;;;;;;1.30;0.30;;;;;;;7.21;100.00;100218.88;104916;1262;69491;-47
2023/05/06 01:19:49;;;;;;;0.20;0.20;;;;;;;7.20;100.00;100212.66;104775;1259;160474;-46
2023/05/06 01:22:16;;;;;;;0.40;0.20;;;;;;;7.20;100.00;100218.55;105414;1262;60973;-46
2023/05/06 01:24:43;;;;;;;0.30;0.20;;;;;;;7.22;100.00;100217.45;104888;1261;60480;-47
2023/05/06 01:27:11;;;;;;;0.50;0.30;;;;;;;7.22;100.00;100217.98;104898;1259;73362;-48
2023/05/06 01:29:40;;;;;;;1.50;0.20;;;;;;;7.23;100.00;100221.32;104842;1264;68378;-48
2023/05/06 01:32:24;;;;;;;0.40;0.20;;;;;;;7.28;100.00;100221.38;106943;1259;73275;-48
2023/05/06 01:35:07;;;;;;;1.80;0.30;;;;;;;7.34;100.00;100223.16;108546;1260;62549;-48
2023/05/06 01:37:41;;;;;;;1.70;0.20;;;;;;;7.35;100.00;100228.67;108508;1259;59283;-49
2023/05/06 01:40:08;;;;;;;0.30;0.20;;;;;;;7.34;100.00;100228.70;106830;1256;73429;-45
2023/05/06 01:42:35;;;;;;;0.80;0.30;;;;;;;7.34;100.00;100225.85;105194;1257;66761;-48
2023/05/06 01:45:02;;;;;;;1.40;0.30;;;;;;;7.31;100.00;100226.81;108654;1255;72093;-48
2023/05/06 01:47:28;;;;;;;0.40;0.30;;;;;;;7.29;100.00;100233.14;108786;1256;61801;-50
2023/05/06 01:49:56;;;;;;;0.30;0.20;;;;;;;7.25;100.00;100238.41;108659;1261;61425;-49
2023/05/06 01:52:22;;;;;;;1.30;0.20;;;;;;;7.25;100.00;100238.77;108702;1255;74466;-49
2023/05/06 01:54:49;;;;;;;1.90;0.30;;;;;;;7.25;100.00;100242.34;108842;1259;67031;-49
2023/05/06 01:57:16;;;;;;;4.10;0.20;;;;;;;7.23;100.00;100240.77;108563;1256;74745;-49
2023/05/06 01:59:43;;;;;;;0.30;0.20;;;;;;;7.19;100.00;100243.56;108666;1255;62243;-49
2023/05/06 02:02:10;;;;;;;1.40;0.30;;;;;;;7.13;100.00;100248.71;108851;1255;63064;-49
2023/05/06 02:04:36;;;;;;;2.20;0.20;;;;;;;7.09;100.00;100252.05;108823;1254;71594;-48
2023/05/06 02:07:04;;;;;;;0.50;0.30;;;;;;;7.05;100.00;100255.54;108779;1255;70252;-49
2023/05/06 02:09:30;;;;;;;0.20;0.20;;;;;;;6.98;100.00;100256.25;106869;1256;73953;-49
2023/05/06 02:12:00;;;;;;;1.70;0.40;;;;;;;6.91;100.00;100255.17;108740;1259;62421;-49
2023/05/06 02:14:27;;;;;;;0.20;0.20;;;;;;;6.85;100.00;100258.38;108550;1256;60249;-49
2023/05/06 02:16:56;;;;;;;0.20;0.20;;;;;;;6.80;100.00;100263.85;106237;1256;71676;-46
2023/05/06 02:19:24;;;;;;;1.00;0.30;;;;;;;6.77;100.00;100263.40;105762;1256;68084;-47
2023/05/06 02:21:51;;;;;;;0.60;0.20;;;;;;;6.76;100.00;100265.55;105450;1259;71770;-47
2023/05/06 02:24:20;;;;;;;0.30;0.20;;;;;;;6.76;100.00;100264.13;105749;1259;62693;-46
2023/05/06 02:26:47;;;;;;;0.50;0.20;;;;;;;6.77;100.00;100265.70;105442;1256;60736;-44
2023/05/06 02:29:14;;;;;;;3.00;0.20;;;;;;;6.76;100.00;100269.30;105192;1261;75454;-48
2023/05/06 02:31:41;;;;;;;0.30;0.20;;;;;;;6.74;100.00;100270.42;105254;1256;66399;-46
2023/05/06 02:34:09;;;;;;;0.40;0.20;;;;;;;6.69;100.00;100276.25;105497;1261;75355;-48
2023/05/06 02:36:36;;;;;;;0.30;0.20;;;;;;;6.65;100.00;100276.53;105437;1256;61244;-48
2023/05/06 02:39:03;;;;;;;0.30;0.20;;;;;;;6.57;100.00;100279.58;105478;1258;60888;-47
2023/05/06 02:41:30;;;;;;;0.50;0.20;;;;;;;6.51;100.00;100282.93;105155;1261;74765;-47
2023/05/06 02:43:57;;;;;;;2.00;0.20;;;;;;;6.49;100.00;100286.54;105488;1261;66433;-49
2023/05/06 02:46:24;;;;;;;0.50;0.20;;;;;;;6.46;100.00;100290.34;105197;1260;72329;-46
2023/05/06 02:48:51;;;;;;;3.30;0.20;;;;;;;6.42;100.00;100292.40;105172;1256;63554;-45
2023/05/06 02:51:18;;;;;;;0.20;0.20;;;;;;;6.35;100.00;100295.25;105330;1256;59666;-49
2023/05/06 02:53:45;;;;;;;0.30;0.20;;;;;;;6.29;100.00;100286.83;105247;1261;73602;-47
2023/05/06 02:56:12;;;;;;;0.20;0.20;;;;;;;6.23;100.00;100289.25;105252;1261;69754;-45
2023/05/06 02:58:39;;;;;;;0.40;0.30;;;;;;;6.21;100.00;100298.04;105105;1259;71893;-46
2023/05/06 03:01:06;;;;;;;0.60;0.10;;;;;;;6.23;100.00;100303.15;105397;1258;60890;-47
2023/05/06 03:03:33;;;;;;;0.40;0.10;;;;;;;6.29;100.00;100301.42;105290;1264;59630;-48
2023/05/06 03:06:00;;;;;;;0.40;0.10;;;;;;;6.31;100.00;100306.37;105217;1263;73459;-49
2023/05/06 03:08:27;;;;;;;0.20;0.20;;;;;;;6.34;100.00;100300.61;105265;1256;68319;-47
2023/05/06 03:10:54;;;;;;;0.60;0.20;;;;;;;6.34;100.00;100294.38;105145;1264;74613;-48
2023/05/06 03:13:21;;;;;;;0.20;0.10;;;;;;;6.34;100.00;100302.92;105426;1260;61739;-48
2023/05/06 03:15:55;;;;;;;0.90;0.20;;;;;;;6.34;100.00;100308.27;105495;1261;60549;-47
2023/05/06 03:18:22;;;;;;;0.30;0.10;;;;;;;6.31;100.00;100312.61;105374;1256;74840;-48
2023/05/06 03:20:49;;;;;;;0.50;0.20;;;;;;;6.27;100.00;100314.14;105272;1256;69294;-46
2023/05/06 03:23:17;;;;;;;4.60;0.40;;;;;;;6.21;100.00;100323.86;105531;1261;73390;-48
2023/05/06 03:25:44;;;;;;;0.10;0.10;;;;;;;6.17;100.00;100337.34;105205;1257;63427;-47
2023/05/06 03:28:12;;;;;;;0.20;0.10;;;;;;;6.15;100.00;100343.27;105516;1256;60906;-46
2023/05/06 03:30:38;;;;;;;0.20;0.20;;;;;;;6.11;100.00;100352.79;105211;1262;72884;-48
2023/05/06 03:33:06;;;;;;;0.20;0.10;;;;;;;6.11;100.00;100353.86;105681;1256;70201;-47
2023/05/06 03:35:33;;;;;;;0.20;0.20;;;;;;;6.13;100.00;100358.46;105458;1261;74853;-44
2023/05/06 03:38:00;;;;;;;0.40;0.20;;;;;;;6.17;100.00;100361.77;105418;1258;61676;-44
2023/05/06 03:40:33;;;;;;;0.90;0.20;;;;;;;6.23;100.00;100355.56;105714;1261;61837;-46
2023/05/06 03:43:00;;;;;;;0.50;0.20;;;;;;;6.28;100.00;100348.17;105032;1257;75387;-47
2023/05/06 03:45:27;;;;;;;2.70;0.20;;;;;;;6.32;100.00;100352.69;105183;1264;68720;-46
2023/05/06 03:47:54;;;;;;;0.40;0.20;;;;;;;6.31;100.00;100356.98;105120;1261;73680;-46
2023/05/06 03:50:24;;;;;;;0.30;0.20;;;;;;;6.26;100.00;100357.46;106617;1261;63488;-46
2023/05/06 03:52:51;;;;;;;0.60;0.30;;;;;;;6.24;100.00;100359.98;105424;1257;62230;-46
2023/05/06 03:55:18;;;;;;;0.30;0.20;;;;;;;6.27;100.00;100364.59;105096;1256;72858;-45
2023/05/06 03:57:45;;;;;;;0.30;0.20;;;;;;;6.27;100.00;100367.95;105880;1256;70084;-44
2023/05/06 04:00:13;;;;;;;2.90;0.20;;;;;;;6.29;100.00;100373.81;105119;1259;74012;-46
2023/05/06 04:02:44;;;;;;;0.80;0.20;;;;;;;6.27;100.00;100365.65;105711;1259;61297;-46
2023/05/06 04:05:17;;;;;;;0.30;0.20;;;;;;;6.24;100.00;100356.25;105250;1257;61055;-44
2023/05/06 04:07:44;;;;;;;0.20;0.20;;;;;;;6.23;100.00;100355.92;105278;1257;71907;-48
2023/05/06 04:10:11;;;;;;;0.40;0.30;;;;;;;6.21;100.00;100367.38;105248;1261;68727;-47
2023/05/06 04:12:38;;;;;;;3.30;0.30;;;;;;;6.20;100.00;100372.77;105082;1262;71367;-46
2023/05/06 04:15:06;;;;;;;0.30;0.30;;;;;;;6.20;100.00;100369.72;105175;1261;62071;-46
2023/05/06 04:17:33;;;;;;;0.20;0.20;;;;;;;6.27;100.00;100371.88;105334;1262;62475;-47
2023/05/06 04:20:07;;;;;;;2.10;0.30;;;;;;;6.36;100.00;100371.86;105466;1261;74693;-47
2023/05/06 04:22:34;;;;;;;0.30;0.20;;;;;;;6.48;100.00;100369.48;108520;1256;68442;-48
2023/05/06 04:25:01;;;;;;;0.30;0.30;;;;;;;6.62;100.00;100366.66;108675;1257;73804;-47
2023/05/06 04:27:30;;;;;;;0.40;0.20;;;;;;;6.78;100.00;100368.06;108635;1259;60609;-48
2023/05/06 04:29:57;;;;;;;3.50;0.20;;;;;;;6.91;100.00;100375.64;108722;1260;60490;-48
2023/05/06 04:32:25;;;;;;;1.50;0.20;;;;;;;6.96;100.00;100378.19;108614;1255;74148;-50
2023/05/06 04:34:52;;;;;;;0.80;0.30;;;;;;;6.97;100.00;100384.75;108570;1256;69314;-49
2023/05/06 04:37:19;;;;;;;0.90;0.30;;;;;;;6.97;100.00;100385.81;108579;1257;74835;-47
2023/05/06 04:39:51;;;;;;;0.30;0.20;;;;;;;6.96;100.00;100389.44;108650;1256;60770;-47
2023/05/06 04:42:18;;;;;;;3.20;0.30;;;;;;;6.95;100.00;100388.55;108785;1256;60600;-48
2023/05/06 04:44:50;;;;;;;1.90;0.20;;;;;;;6.97;100.00;100389.42;108780;1255;75974;-48
2023/05/06 04:47:19;;;;;;;1.60;0.20;;;;;;;6.98;100.00;100390.45;108698;1255;68096;-48
2023/05/06 04:49:47;;;;;;;0.60;0.30;;;;;;;7.01;100.00;100396.60;108683;1255;72647;-46
2023/05/06 04:52:15;;;;;;;0.30;0.20;;;;;;;7.04;100.00;100391.37;108830;1261;59796;-46
2023/05/06 04:54:42;;;;;;;0.60;0.20;;;;;;;7.08;100.00;100390.20;108027;1260;62591;-46
2023/05/06 04:57:11;;;;;;;0.30;0.20;;;;;;;7.11;100.00;100385.85;108723;1261;75284;-46
2023/05/06 04:59:38;;;;;;;1.60;0.30;;;;;;;7.15;100.00;100378.23;107387;1260;68515;-47
2023/05/06 05:02:05;;;;;;;0.20;0.20;;;;;;;7.21;100.00;100381.67;105238;1261;72936;-47
2023/05/06 05:04:32;;;;;;;2.40;0.30;;;;;;;7.31;100.00;100379.30;105072;1265;59776;-47
2023/05/06 05:06:59;;;;;;;2.70;0.30;;;;;;;7.42;100.00;100376.33;106213;1257;60742;-46
2023/05/06 05:09:27;;;;;;;2.60;0.30;;;;;;;7.50;100.00;100376.64;105169;1261;73514;-47
2023/05/06 05:11:53;;;;;;;0.60;0.30;;;;;;;7.58;100.00;100377.67;105109;1260;67708;-47
2023/05/06 05:14:20;;;;;;;1.90;0.30;;;;;;;7.65;100.00;100379.48;107961;1257;72369;-48
2023/05/06 05:16:47;;;;;;;0.60;0.30;;;;;;;7.70;100.00;100382.92;105198;1258;60485;-45
2023/05/06 05:19:14;;;;;;;0.20;0.20;;;;;;;7.72;100.00;100386.98;104590;1260;60379;-46
2023/05/06 05:21:41;;;;;;;0.40;0.20;;;;;;;7.77;100.00;100385.23;104898;1263;73720;-46
2023/05/06 05:24:08;;;;;;;0.40;0.30;;;;;;;7.78;100.00;100381.43;104941;1260;68408;-44
2023/05/06 05:26:35;;;;;;;0.80;0.30;;;;;;;7.81;100.00;100383.88;105026;1261;74200;-49
2023/05/06 05:29:02;;;;;;;0.20;0.10;;;;;;;7.87;100.00;100382.45;104948;1261;62331;-47
2023/05/06 05:31:30;;;;;;;0.50;0.20;;;;;;;7.92;100.00;100382.29;108645;1257;61269;-47
2023/05/06 05:33:57;;;;;;;0.60;0.20;;;;;;;7.95;100.00;100377.59;108058;1260;73843;-45
2023/05/06 05:36:26;;;;;;;0.40;0.20;;;;;;;7.97;100.00;100379.30;105441;1263;68517;-46
2023/05/06 05:38:53;;;;;;;2.60;0.20;;;;;;;8.03;100.00;100375.58;105473;1260;72671;-47
2023/05/06 05:41:21;;;;;;;3.30;0.20;;;;;;;8.08;100.00;100378.46;105080;1265;60594;-45
2023/05/06 05:43:48;;;;;;;1.60;0.20;;;;;;;8.12;100.00;100382.81;105138;1261;61301;-44
2023/05/06 05:46:15;;;;;;;0.30;0.20;;;;;;;8.17;100.00;100379.09;105085;1257;74160;-45
2023/05/06 05:48:43;;;;;;;0.60;0.20;;;;;;;8.24;100.00;100374.61;105148;1260;68235;-47
2023/05/06 05:51:10;;;;;;;1.80;0.20;;;;;;;8.23;100.00;100378.76;105110;1261;71788;-46
2023/05/06 05:53:37;;;;;;;0.30;0.10;;;;;;;8.20;100.00;100378.84;105633;1261;61466;-49
2023/05/06 05:56:05;;;;;;;2.30;0.20;;;;;;;8.23;100.00;100379.84;104870;1258;62214;-45
2023/05/06 05:58:32;;;;;;;0.60;0.20;;;;;;;8.28;100.00;100376.45;104811;1261;76026;-45
2023/05/06 06:01:00;;;;;;;1.60;0.20;;;;;;;8.34;100.00;100381.50;105149;1262;69818;-45
2023/05/06 06:03:28;;;;;;;1.70;0.30;;;;;;;8.40;100.00;100383.50;105828;1256;71890;-46
2023/05/06 06:05:55;;;;;;;0.50;0.20;;;;;;;8.41;100.00;100386.66;108541;1258;60787;-46
2023/05/06 06:08:23;;;;;;;2.50;0.20;;;;;;;8.41;100.00;100388.81;108164;1260;61641;-45
2023/05/06 06:10:50;;;;;;;2.10;0.20;;;;;;;8.46;100.00;100381.50;105348;1262;76206;-48
2023/05/06 06:13:20;;;;;;;0.20;0.20;;;;;;;8.51;100.00;100387.98;105291;1260;69673;-44
2023/05/06 06:15:47;;;;;;;1.10;0.20;;;;;;;8.58;100.00;100388.66;105629;1261;73629;-47
2023/05/06 06:18:14;;;;;;;0.60;0.30;;;;;;;8.62;100.00;100382.64;105140;1257;61299;-48
2023/05/06 06:20:41;;;;;;;0.50;0.20;;;;;;;8.64;100.00;100384.91;105167;1257;61313;-46
2023/05/06 06:23:08;;;;;;;0.40;0.20;;;;;;;8.66;100.00;100388.06;105057;1264;72581;-46
2023/05/06 06:25:34;;;;;;;0.50;0.20;;;;;;;8.71;100.00;100394.16;105194;1265;68729;-47
2023/05/06 06:28:01;;;;;;;2.80;0.40;;;;;;;8.75;100.00;100395.85;105286;1260;72098;-48
2023/05/06 06:30:28;;;;;;;0.50;0.20;;;;;;;8.76;100.00;100395.10;105184;1263;61712;-47
2023/05/06 06:32:55;;;;;;;0.40;0.20;;;;;;;8.75;100.00;100394.08;105257;1260;62032;-48
2023/05/06 06:35:22;;;;;;;0.50;0.20;;;;;;;8.77;100.00;100387.54;105414;1254;74920;-45
2023/05/06 06:37:49;;;;;;;2.40;0.20;;;;;;;8.85;100.00;100394.27;105033;1256;68716;-46
2023/05/06 06:40:16;;;;;;;1.50;0.20;;;;;;;8.92;100.00;100394.77;104586;1257;71727;-45
2023/05/06 06:42:43;;;;;;;0.30;0.10;;;;;;;9.00;100.00;100392.90;104832;1257;60532;-45
2023/05/06 06:45:27;;;;;;;0.20;0.10;;;;;;;9.11;100.00;100397.74;104882;1257;60422;-45
2023/05/06 06:47:54;;;;;;;1.10;0.20;;;;;;;9.16;100.00;100395.98;104724;1257;74261;-46
2023/05/06 06:50:20;;;;;;;1.60;0.30;;;;;;;9.18;100.00;100393.42;105042;1259;67115;-48
2023/05/06 06:52:47;;;;;;;0.50;0.30;;;;;;;9.22;100.00;100397.91;105145;1269;74053;-45
2023/05/06 06:55:14;;;;;;;2.30;0.30;;;;;;;9.31;100.00;100395.48;105188;1260;61470;-46
2023/05/06 06:57:41;;;;;;;0.40;0.20;;;;;;;9.38;100.00;100388.44;105209;1259;61220;-44
2023/05/06 07:00:08;;;;;;;3.90;0.30;;;;;;;9.43;100.00;100392.21;105281;1258;75843;-45
2023/05/06 07:02:35;;;;;;;1.40;0.20;;;;;;;9.47;100.00;100393.68;106391;1260;71033;-45
2023/05/06 07:05:03;;;;;;;0.60;0.20;;;;;;;9.48;100.00;100396.86;104995;1258;74961;-49
2023/05/06 07:07:29;;;;;;;2.10;0.20;;;;;;;9.48;100.00;100398.31;105054;1259;60551;-45
2023/05/06 07:09:56;;;;;;;3.30;0.20;;;;;;;9.45;100.00;100400.38;105193;1256;60370;-48
2023/05/06 07:12:25;;;;;;;0.80;0.20;;;;;;;9.41;100.00;100395.66;105202;1260;73974;-46
2023/05/06 07:14:52;;;;;;;3.70;1.10;;;;;;;9.40;100.00;100395.52;105885;1262;68694;-46
2023/05/06 07:17:19;;;;;;;6.90;0.40;;;;;;;9.43;100.00;100399.72;105290;1260;72893;-46
2023/05/06 07:19:46;;;;;;;2.80;0.20;;;;;;;9.45;100.00;100394.83;105216;1261;61850;-46
2023/05/06 07:22:12;;;;;;;0.30;0.30;;;;;;;9.36;100.00;100395.83;105152;1264;60708;-46
2023/05/06 07:24:39;;;;;;;0.50;0.20;;;;;;;9.33;100.00;100402.05;105253;1260;76194;-45
2023/05/06 07:27:06;;;;;;;0.50;0.20;;;;;;;9.32;100.00;100394.02;105291;1261;68571;-49
2023/05/06 07:29:35;;;;;;;0.80;0.20;;;;;;;9.34;100.00;100390.55;105263;1261;74101;-47
2023/05/06 07:32:02;;;;;;;0.20;0.10;;;;;;;9.40;100.00;100391.60;108846;1257;59783;-47
2023/05/06 07:34:29;;;;;;;0.50;0.30;;;;;;;9.52;100.00;100387.41;108898;1256;60188;-46
2023/05/06 07:36:56;;;;;;;0.30;0.20;;;;;;;9.64;100.00;100385.59;108813;1260;74726;-46
2023/05/06 07:39:23;;;;;;;3.60;0.30;;;;;;;9.73;100.00;100386.35;108881;1256;69397;-47
2023/05/06 07:41:50;;;;;;;0.50;0.30;;;;;;;9.87;100.00;100386.93;108875;1258;73432;-46
2023/05/06 07:44:17;;;;;;;0.30;0.20;;;;;;;10.00;100.00;100387.38;108878;1257;62375;-48
2023/05/06 07:46:43;;;;;;;3.20;0.20;;;;;;;10.08;100.00;100385.46;105560;1260;61107;-45
2023/05/06 07:49:10;;;;;;;3.30;0.20;;;;;;;10.17;100.00;100388.37;105262;1256;74728;-46
2023/05/06 07:51:37;;;;;;;0.80;0.20;;;;;;;10.21;100.00;100388.77;105237;1261;67575;-46
2023/05/06 07:54:04;;;;;;;1.40;0.20;;;;;;;10.25;100.00;100391.14;105236;1257;74144;-46
2023/05/06 07:56:31;;;;;;;1.80;0.20;;;;;;;10.25;100.00;100390.95;108825;1257;60865;-46
2023/05/06 07:58:58;;;;;;;0.60;0.20;;;;;;;10.25;100.00;100392.38;108848;1256;59289;-45
2023/05/06 08:01:26;;;;;;;2.80;0.20;;;;;;;10.33;100.00;100387.63;108928;1256;75732;-48
2023/05/06 08:03:52;;;;;;;0.30;0.20;;;;;;;10.43;100.00;100384.89;108843;1257;68017;-47
2023/05/06 08:06:19;;;;;;;0.50;0.10;;;;;;;10.55;100.00;100380.86;108823;1257;74890;-49
2023/05/06 08:08:46;;;;;;;0.30;0.20;;;;;;;10.64;100.00;100386.08;108905;1256;62813;-45
2023/05/06 08:11:13;;;;;;;1.20;0.20;;;;;;;10.73;100.00;100392.55;106797;1260;61484;-46
2023/05/06 08:13:39;;;;;;;0.40;0.20;;;;;;;10.73;100.00;100392.34;105156;1261;75829;-46
2023/05/06 08:16:06;;;;;;;0.90;0.20;;;;;;;10.69;100.00;100390.19;105222;1258;69997;-45
2023/05/06 08:18:33;;;;;;;0.70;0.30;;;;;;;10.69;100.00;100395.94;105204;1261;74946;-46
2023/05/06 08:21:00;;;;;;;0.30;0.20;;;;;;;10.72;100.00;100399.73;105094;1261;60889;-49
2023/05/06 08:23:27;;;;;;;1.10;0.20;;;;;;;10.77;100.00;100393.83;105215;1261;62277;-43
2023/05/06 08:25:53;;;;;;;0.20;0.20;;;;;;;10.77;100.00;100397.43;105258;1257;72594;-47
2023/05/06 08:28:20;;;;;;;0.70;0.20;;;;;;;10.74;100.00;100396.63;105336;1260;67915;-47
2023/05/06 08:30:51;;;;;;;2.80;0.20;;;;;;;10.73;100.00;100397.02;105251;1261;73268;-48
2023/05/06 08:33:17;;;;;;;0.90;0.20;;;;;;;10.74;100.00;100393.02;105201;1260;62358;-47
2023/05/06 08:35:45;;;;;;;2.50;0.20;;;;;;;10.75;100.00;100399.11;105099;1256;60417;-48
2023/05/06 08:38:12;;;;;;;0.20;0.20;;;;;;;10.78;100.00;100392.00;105142;1260;74047;-47
2023/05/06 08:40:41;;;;;;;0.90;0.20;;;;;;;10.83;100.00;100390.54;105183;1261;70161;-44
2023/05/06 08:43:13;;;;;;;0.20;0.10;;;;;;;10.87;100.00;100392.54;105469;1257;75086;-45
2023/05/06 08:45:40;;;;;;;3.60;0.20;;;;;;;10.95;100.00;100397.39;105268;1258;60992;-45
2023/05/06 08:48:08;;;;;;;0.20;0.20;;;;;;;10.99;100.00;100394.20;105327;1257;60903;-43
2023/05/06 08:50:39;;;;;;;1.20;0.20;;;;;;;10.99;100.00;100399.41;105026;1260;76177;-49
2023/05/06 08:53:13;;;;;;;3.10;0.30;;;;;;;11.01;100.00;100404.01;105186;1256;67120;-47
2023/05/06 08:55:40;;;;;;;0.40;0.20;;;;;;;11.07;100.00;100407.36;105182;1261;74812;-48
2023/05/06 08:58:07;;;;;;;0.20;0.10;;;;;;;11.14;100.00;100403.10;105200;1260;60449;-49
2023/05/06 09:00:34;;;;;;;0.10;0.10;;;;;;;11.15;100.00;100400.56;105091;1260;60388;-47
2023/05/06 09:03:01;;;;;;;0.20;0.10;;;;;;;11.15;100.00;100403.83;105040;1260;75951;-46
2023/05/06 09:05:28;;;;;;;7.60;0.20;;;;;;;11.16;100.00;100408.77;105116;1257;70770;-45
2023/05/06 09:07:55;;;;;;;0.20;0.10;;;;;;;11.18;100.00;100404.55;104953;1260;74659;-45
2023/05/06 09:10:21;;;;;;;1.30;0.10;;;;;;;11.22;100.00;100399.38;104929;1256;60553;-48
2023/05/06 09:12:48;;;;;;;1.20;0.30;;;;;;;11.30;100.00;100401.75;104953;1261;60410;-47
2023/05/06 09:15:15;;;;;;;0.30;0.20;;;;;;;11.40;100.00;100405.48;104699;1258;72307;-45
2023/05/06 09:17:41;;;;;;;0.50;0.20;;;;;;;11.46;100.00;100403.80;104794;1260;67649;-47
2023/05/06 09:20:10;;;;;;;0.50;0.30;;;;;;;11.50;100.00;100402.89;104974;1263;74976;-46
2023/05/06 09:22:38;;;;;;;2.10;0.30;;;;;;;11.49;100.00;100398.96;105594;1261;61928;-45
2023/05/06 09:25:06;;;;;;;3.30;0.30;;;;;;;11.55;100.00;100398.35;105164;1261;60470;-47
2023/05/06 09:27:33;;;;;;;1.10;0.20;;;;;;;11.63;100.00;100394.97;104990;1258;75326;-47
2023/05/06 09:30:08;;;;;;;0.80;0.40;;;;;;;11.71;100.00;100400.57;105173;1260;68909;-47
2023/05/06 09:32:35;;;;;;;0.30;0.20;;;;;;;11.76;100.00;100401.63;105107;1257;71359;-45
2023/05/06 09:35:07;;;;;;;0.40;0.20;;;;;;;11.72;100.00;100402.50;105124;1260;60399;-46
2023/05/06 09:37:34;;;;;;;0.70;0.40;;;;;;;11.69;100.00;100408.38;105270;1260;60435;-49
2023/05/06 09:40:01;;;;;;;0.60;0.20;;;;;;;11.66;100.00;100404.36;105209;1260;75425;-47
2023/05/06 09:42:28;;;;;;;0.50;0.20;;;;;;;11.62;100.00;100396.27;105231;1260;67045;-45
2023/05/06 09:44:56;;;;;;;0.40;0.20;;;;;;;11.62;100.00;100393.05;105244;1257;72802;-45
2023/05/06 09:47:28;;;;;;;0.30;0.20;;;;;;;11.62;100.00;100392.84;105957;1258;62169;-46
2023/05/06 09:49:59;;;;;;;0.80;0.20;;;;;;;11.59;100.00;100392.98;105088;1257;60210;-45
2023/05/06 09:52:27;;;;;;;0.30;0.20;;;;;;;11.57;100.00;100391.45;105349;1255;73147;-46
2023/05/06 09:54:54;;;;;;;0.50;0.20;;;;;;;11.57;100.00;100388.60;106238;1257;68093;-46
2023/05/06 09:57:21;;;;;;;2.80;0.30;;;;;;;11.58;100.00;100384.56;105367;1260;73534;-45
2023/05/06 09:59:48;;;;;;;0.40;0.20;;;;;;;11.60;100.00;100385.39;105053;1254;61707;-49
2023/05/06 10:02:14;;;;;;;2.20;0.50;;;;;;;11.64;100.00;100380.73;105116;1257;60743;-48
2023/05/06 10:04:42;;;;;;;0.50;0.30;;;;;;;11.67;100.00;100384.00;104877;1263;74931;-45
2023/05/06 10:07:12;;;;;;;0.30;0.20;;;;;;;11.72;100.00;100385.96;106060;1261;70269;-50
2023/05/06 10:09:39;;;;;;;1.80;0.50;;;;;;;11.74;100.00;100386.02;104818;1259;74368;-46
2023/05/06 10:12:07;;;;;;;0.80;0.20;;;;;;;11.75;100.00;100386.56;105951;1257;61504;-46
2023/05/06 10:14:35;;;;;;;1.70;0.20;;;;;;;11.74;100.00;100389.46;108864;1257;60992;-48
2023/05/06 10:17:09;;;;;;;2.10;0.20;;;;;;;11.71;100.00;100383.67;108806;1255;73572;-48
2023/05/06 10:19:46;;;;;;;1.30;0.60;;;;;;;11.66;100.00;100381.34;107288;1261;70115;-46
2023/05/06 10:22:27;;;;;;;1.90;0.20;;;;;;;11.66;100.00;100377.02;105067;1255;74799;-48
2023/05/06 10:24:57;;;;;;;0.20;0.20;;;;;;;11.73;100.00;100382.68;105012;1262;60583;-49
2023/05/06 10:27:25;;;;;;;1.50;0.30;;;;;;;11.79;100.00;100389.83;108815;1256;62578;-48
2023/05/06 10:29:57;;;;;;;0.50;0.30;;;;;;;11.82;100.00;100379.48;108756;1257;72698;-47
2023/05/06 10:32:25;;;;;;;0.20;0.20;;;;;;;11.85;100.00;100387.95;108665;1255;67748;-48
2023/05/06 10:34:53;;;;;;;0.30;0.20;;;;;;;11.91;100.00;100384.79;108772;1255;72901;-44
2023/05/06 10:37:24;;;;;;;0.50;0.30;;;;;;;11.94;100.00;100382.66;107382;1260;60540;-49
2023/05/06 10:39:52;;;;;;;0.90;0.30;;;;;;;11.94;100.00;100383.77;105220;1258;60433;-48
2023/05/06 10:42:19;;;;;;;0.90;0.30;;;;;;;11.95;100.00;100379.77;105260;1256;73566;-50
2023/05/06 10:44:59;;;;;;;1.90;0.10;;;;;;;11.97;100.00;100380.77;105201;1255;70222;-47
2023/05/06 10:47:26;;;;;;;5.40;0.30;;;;;;;11.95;100.00;100374.73;108711;1255;73006;-49
2023/05/06 10:50:16;;;;;;;2.60;0.20;;;;;;;11.95;100.00;100380.30;108585;1257;58738;-47
2023/05/06 10:52:44;;;;;;;1.50;0.30;;;;;;;12.01;100.00;100377.54;108765;1260;60163;-46
2023/05/06 10:55:34;;;;;;;0.30;0.30;;;;;;;12.04;100.00;100376.84;108011;1257;76634;-47
2023/05/06 10:58:10;;;;;;;3.10;0.30;;;;;;;12.07;100.00;100376.35;105130;1256;69185;-47
2023/05/06 11:00:37;;;;;;;1.00;0.40;;;;;;;12.11;100.00;100372.73;105197;1260;72488;-49
2023/05/06 11:03:09;;;;;;;0.40;0.20;;;;;;;12.20;100.00;100373.09;105146;1257;60620;-46
2023/05/06 11:05:47;;;;;;;1.00;0.40;;;;;;;12.27;100.00;100374.73;106719;1256;60584;-47
2023/05/06 11:08:15;;;;;;;0.40;0.30;;;;;;;12.28;100.00;100366.93;105812;1257;74340;-46
2023/05/06 11:10:42;;;;;;;0.80;0.20;;;;;;;12.33;100.00;100366.01;105063;1256;67160;-47
2023/05/06 11:13:26;;;;;;;2.70;0.30;;;;;;;12.40;100.00;100360.27;105089;1260;72753;-46
2023/05/06 11:15:57;;;;;;;2.10;0.20;;;;;;;12.46;100.00;100353.16;105276;1257;60929;-46
2023/05/06 11:18:23;;;;;;;1.40;0.30;;;;;;;12.47;100.00;100358.49;105366;1256;60883;-45
2023/05/06 11:21:03;;;;;;;1.00;0.20;;;;;;;12.51;100.00;100358.30;105298;1260;74506;-49
2023/05/06 11:23:48;;;;;;;2.10;0.30;;;;;;;12.58;100.00;100356.91;105207;1260;68845;-49